Time;durP1;ratioP1;P1;durP2;ratioP2;P2;SDS_P1;SDS_P2;PMS_P1;PMS_P2;Temp;Humidity;BMP_temperature;BMP_pressure;BME280_temperature;BME280_humidity;BME280_pressure;Samples;Min_cycle;Max_cycle;Signal;HPM_P1;HPM_P2
2021/08/26 00:07:45;;;;;;;3.42;2.17;;;18.30;68.90;;;;;;5059124;28;20060;-78
2021/08/26 00:10:13;;;;;;;3.13;2.10;;;18.30;69.10;;;;;;5058345;28;20543;-78
2021/08/26 00:12:39;;;;;;;3.30;1.85;;;18.30;69.10;;;;;;5058622;28;20031;-78
2021/08/26 00:15:08;;;;;;;2.85;2.35;;;18.30;69.10;;;;;;5058387;28;20029;-78
2021/08/26 00:17:34;;;;;;;3.35;2.20;;;18.30;69.40;;;;;;5058518;28;20036;-78
2021/08/26 00:20:00;;;;;;;2.00;1.73;;;18.20;69.50;;;;;;5058425;28;20048;-78
2021/08/26 00:22:26;;;;;;;2.38;2.10;;;18.20;69.40;;;;;;5058374;28;20029;-78
2021/08/26 00:24:52;;;;;;;1.95;1.80;;;18.20;69.60;;;;;;5072138;28;20029;-78
2021/08/26 00:27:17;;;;;;;2.78;1.88;;;18.10;69.80;;;;;;5074712;28;20025;-78
2021/08/26 00:29:43;;;;;;;3.20;2.17;;;18.10;69.70;;;;;;5058276;28;20025;-78
2021/08/26 00:32:09;;;;;;;3.10;2.13;;;18.10;69.80;;;;;;5058014;28;20392;-78
2021/08/26 00:34:34;;;;;;;2.58;2.38;;;18.10;69.90;;;;;;5056891;28;20494;-78
2021/08/26 00:37:03;;;;;;;3.40;2.30;;;18.00;69.90;;;;;;5070728;28;20379;-78
2021/08/26 00:39:29;;;;;;;2.63;2.10;;;18.00;69.90;;;;;;5058322;28;20036;-78
2021/08/26 00:41:54;;;;;;;2.78;2.58;;;18.00;70.10;;;;;;5069964;28;20029;-78
2021/08/26 00:44:21;;;;;;;2.47;2.17;;;17.90;70.40;;;;;;5056494;28;20032;-78
2021/08/26 00:46:47;;;;;;;2.72;2.38;;;17.90;70.10;;;;;;5056494;28;20036;-78
2021/08/26 00:49:17;;;;;;;2.38;2.10;;;17.90;70.40;;;;;;5057715;28;20067;-78
2021/08/26 00:51:46;;;;;;;2.88;2.58;;;17.90;70.60;;;;;;5057724;28;20039;-78
2021/08/26 00:54:13;;;;;;;2.75;2.40;;;17.90;70.50;;;;;;5073158;28;20395;-79
2021/08/26 00:56:39;;;;;;;2.63;2.22;;;17.90;70.50;;;;;;5057808;28;20050;-78
2021/08/26 00:59:06;;;;;;;3.22;2.47;;;17.90;70.70;;;;;;5073257;28;20858;-78
2021/08/26 01:02:00;;;;;;;2.92;2.30;;;17.90;70.80;;;;;;5077621;28;20105;-78
2021/08/26 01:05:00;;;;;;;3.25;2.15;;;17.90;70.90;;;;;;5069336;28;20040;-78
2021/08/26 01:07:39;;;;;;;3.37;2.37;;;17.80;70.70;;;;;;5032856;28;20114;-78
2021/08/26 01:10:08;;;;;;;2.38;2.17;;;17.80;71.00;;;;;;5057437;28;20322;-78
2021/08/26 01:12:36;;;;;;;2.85;2.50;;;17.80;70.80;;;;;;5058149;28;20022;-78
2021/08/26 01:15:02;;;;;;;2.65;2.15;;;17.80;71.10;;;;;;5077603;28;20038;-78
2021/08/26 01:17:30;;;;;;;2.70;2.50;;;17.80;71.00;;;;;;5077322;28;20484;-78
2021/08/26 01:20:00;;;;;;;3.53;2.33;;;17.70;70.80;;;;;;5060591;28;20040;-78
2021/08/26 01:22:28;;;;;;;2.78;2.53;;;17.80;70.90;;;;;;5057398;28;20033;-78
2021/08/26 01:25:06;;;;;;;2.40;2.20;;;17.70;70.90;;;;;;5064166;28;20092;-78
2021/08/26 01:27:42;;;;;;;2.83;2.40;;;17.70;70.90;;;;;;5077237;28;20020;-78
2021/08/26 01:30:16;;;;;;;2.47;2.25;;;17.70;70.80;;;;;;5062013;28;20029;-78
2021/08/26 01:32:43;;;;;;;2.85;2.45;;;17.60;71.30;;;;;;5057043;28;20020;-78
2021/08/26 01:35:10;;;;;;;3.25;2.45;;;17.50;71.50;;;;;;5056900;28;20040;-78
2021/08/26 01:37:38;;;;;;;3.65;2.30;;;17.60;71.40;;;;;;5056932;28;20029;-78
2021/08/26 01:40:04;;;;;;;2.75;2.38;;;17.50;71.30;;;;;;5058216;28;20033;-77
2021/08/26 01:42:30;;;;;;;2.58;2.20;;;17.50;71.50;;;;;;5077024;28;20036;-78
2021/08/26 01:45:07;;;;;;;;;;;;;;;;;;;;;
2021/08/26 01:47:35;;;;;;;3.45;2.70;;;17.50;71.80;;;;;;5056465;28;20051;-78
2021/08/26 01:50:00;;;;;;;2.70;2.50;;;17.40;71.60;;;;;;5055387;28;20029;-78
2021/08/26 01:52:28;;;;;;;3.85;3.00;;;17.40;71.90;;;;;;5056693;28;20372;-78
2021/08/26 01:54:56;;;;;;;2.90;2.63;;;17.30;72.20;;;;;;5056542;28;20033;-78
2021/08/26 01:57:23;;;;;;;3.72;2.75;;;17.30;72.20;;;;;;5061832;28;20092;-78
2021/08/26 01:59:49;;;;;;;3.13;2.83;;;17.30;72.20;;;;;;5072227;28;20031;-78
2021/08/26 02:02:18;;;;;;;3.10;2.60;;;17.30;72.20;;;;;;5076295;28;20024;-78
2021/08/26 02:04:44;;;;;;;2.95;2.65;;;17.20;72.70;;;;;;5075125;28;20032;-78
2021/08/26 02:07:10;;;;;;;3.42;2.92;;;17.20;72.60;;;;;;5056486;28;20017;-78
2021/08/26 02:09:36;;;;;;;3.38;2.63;;;17.20;72.60;;;;;;5056107;28;20021;-78
2021/08/26 02:12:02;;;;;;;3.22;2.83;;;17.20;72.50;;;;;;5056410;28;20036;-78
2021/08/26 02:14:27;;;;;;;3.35;2.60;;;17.20;72.60;;;;;;5055578;28;20025;-78
2021/08/26 02:16:53;;;;;;;3.47;2.65;;;17.20;72.40;;;;;;5055767;28;20025;-78
2021/08/26 02:19:26;;;;;;;2.90;2.55;;;17.10;72.50;;;;;;5056256;28;20462;-78
2021/08/26 02:21:52;;;;;;;3.20;2.90;;;17.10;72.30;;;;;;5056395;28;20029;-78
2021/08/26 02:24:17;;;;;;;4.03;2.80;;;17.10;72.10;;;;;;5055813;28;20107;-78
2021/08/26 02:26:43;;;;;;;3.35;2.63;;;17.10;72.00;;;;;;5056468;28;20052;-78
2021/08/26 02:29:09;;;;;;;2.55;2.13;;;17.10;72.00;;;;;;5054487;28;20021;-78
2021/08/26 02:31:34;;;;;;;3.25;2.90;;;16.90;72.60;;;;;;5055952;28;20455;-78
2021/08/26 02:34:00;;;;;;;3.17;2.58;;;16.90;72.90;;;;;;5055893;28;20029;-78
2021/08/26 02:36:29;;;;;;;3.35;2.60;;;16.80;72.70;;;;;;5055881;28;20087;-78
2021/08/26 02:38:55;;;;;;;2.95;2.75;;;16.80;73.10;;;;;;5055848;28;20075;-78
2021/08/26 02:41:20;;;;;;;2.90;2.63;;;16.70;73.40;;;;;;5067678;28;20032;-78
2021/08/26 02:43:46;;;;;;;3.13;2.90;;;16.70;73.50;;;;;;5074151;28;20043;-77
2021/08/26 02:46:12;;;;;;;4.13;3.00;;;16.70;73.00;;;;;;5075591;28;20058;-78
2021/08/26 02:48:37;;;;;;;3.67;3.30;;;16.70;73.50;;;;;;5075317;28;20044;-78
2021/08/26 02:51:03;;;;;;;3.10;2.80;;;16.70;73.40;;;;;;5075819;28;20023;-78
2021/08/26 02:53:32;;;;;;;3.05;2.75;;;16.70;73.30;;;;;;5074233;28;20093;-78
2021/08/26 02:55:58;;;;;;;3.63;3.15;;;16.70;73.20;;;;;;5056021;28;20048;-78
2021/08/26 02:58:24;;;;;;;3.78;2.92;;;16.60;73.50;;;;;;5055530;28;20419;-78
2021/08/26 03:00:50;;;;;;;3.33;3.03;;;16.60;73.10;;;;;;5060568;28;20021;-78
2021/08/26 03:03:16;;;;;;;3.60;3.30;;;16.60;73.30;;;;;;5075299;28;20040;-78
2021/08/26 03:05:41;;;;;;;4.00;3.08;;;16.50;73.30;;;;;;5065477;28;20041;-78
2021/08/26 03:08:07;;;;;;;2.88;2.65;;;16.50;73.10;;;;;;5054122;28;20028;-78
2021/08/26 03:10:41;;;;;;;3.40;3.10;;;16.50;73.20;;;;;;5054138;28;20052;-78
2021/08/26 03:13:06;;;;;;;3.55;3.25;;;16.50;73.30;;;;;;5055073;28;20380;-78
2021/08/26 03:15:32;;;;;;;3.15;2.90;;;16.50;73.40;;;;;;5055328;28;20092;-78
2021/08/26 03:17:58;;;;;;;3.10;2.80;;;16.50;73.80;;;;;;5053793;28;20116;-78
2021/08/26 03:20:23;;;;;;;3.65;3.03;;;16.40;73.30;;;;;;5055014;28;20067;-78
2021/08/26 03:22:50;;;;;;;3.60;3.30;;;16.40;73.60;;;;;;5055283;28;20029;-78
2021/08/26 03:25:16;;;;;;;3.60;3.30;;;16.30;73.80;;;;;;5055391;28;20021;-78
2021/08/26 03:27:42;;;;;;;2.97;2.78;;;16.40;73.60;;;;;;5054806;28;20448;-78
2021/08/26 03:30:08;;;;;;;3.30;3.00;;;16.30;73.50;;;;;;5055045;28;20025;-78
2021/08/26 03:32:35;;;;;;;3.40;3.10;;;16.30;73.60;;;;;;5053423;28;20021;-78
2021/08/26 03:35:01;;;;;;;3.25;2.97;;;16.30;73.60;;;;;;5055125;28;20031;-78
2021/08/26 03:37:26;;;;;;;3.50;3.20;;;16.30;73.90;;;;;;5055208;28;20025;-78
2021/08/26 03:39:52;;;;;;;3.30;3.00;;;16.30;73.30;;;;;;5054998;28;20082;-78
2021/08/26 03:42:18;;;;;;;3.45;3.15;;;16.30;73.70;;;;;;5054749;28;20055;-78
2021/08/26 03:44:54;;;;;;;3.72;3.42;;;16.30;74.40;;;;;;5054898;28;20040;-78
2021/08/26 03:47:20;;;;;;;3.28;2.97;;;16.30;74.70;;;;;;5054829;28;20028;-78
2021/08/26 03:49:46;;;;;;;3.15;2.85;;;16.30;74.80;;;;;;5054873;28;20032;-78
2021/08/26 03:52:11;;;;;;;4.18;3.33;;;16.30;75.00;;;;;;5054730;28;20029;-78
2021/08/26 03:54:37;;;;;;;3.92;3.30;;;16.30;74.70;;;;;;5054973;28;20111;-78
2021/08/26 03:57:03;;;;;;;3.85;3.55;;;16.30;75.10;;;;;;5054803;28;20032;-78
2021/08/26 03:59:28;;;;;;;3.90;3.50;;;16.30;74.80;;;;;;5069176;28;20573;-78
2021/08/26 04:01:54;;;;;;;3.30;3.05;;;16.30;74.30;;;;;;5054621;28;20028;-79
2021/08/26 04:04:20;;;;;;;3.25;2.95;;;16.20;74.50;;;;;;5054750;28;20423;-79
2021/08/26 04:06:45;;;;;;;3.50;3.20;;;16.20;74.40;;;;;;5054740;28;20116;-78
2021/08/26 04:09:11;;;;;;;3.42;2.90;;;16.20;74.80;;;;;;5063203;28;20033;-79
2021/08/26 04:11:37;;;;;;;3.60;3.13;;;16.10;74.60;;;;;;5074617;28;20078;-79
2021/08/26 04:14:02;;;;;;;3.58;2.80;;;16.10;74.80;;;;;;5068769;28;20025;-79
2021/08/26 04:16:28;;;;;;;3.97;3.17;;;16.00;74.90;;;;;;5054727;28;20025;-79
2021/08/26 04:18:56;;;;;;;3.40;3.10;;;16.00;74.60;;;;;;5054603;28;20028;-77
2021/08/26 04:21:22;;;;;;;4.35;3.40;;;16.00;74.50;;;;;;5054478;28;20036;-79
2021/08/26 04:23:48;;;;;;;3.55;3.25;;;16.00;74.90;;;;;;5053413;28;20357;-79
2021/08/26 04:26:13;;;;;;;3.83;2.88;;;15.90;74.60;;;;;;5069915;28;20173;-79
2021/08/26 04:28:39;;;;;;;3.60;3.30;;;15.80;74.80;;;;;;5054601;28;20021;-79
2021/08/26 04:31:05;;;;;;;4.85;3.67;;;15.80;74.80;;;;;;5061250;28;20118;-79
2021/08/26 04:33:30;;;;;;;3.78;3.42;;;15.90;75.30;;;;;;5073433;28;20028;-77
2021/08/26 04:36:01;;;;;;;3.80;3.50;;;15.80;76.00;;;;;;5074703;28;20032;-79
2021/08/26 04:38:26;;;;;;;;;;;15.80;76.20;;;;;;5074756;28;20035;-77
2021/08/26 04:40:53;;;;;;;3.88;3.10;;;15.80;75.40;;;;;;5072676;28;20007;-79
2021/08/26 04:43:19;;;;;;;5.18;3.28;;;15.90;75.10;;;;;;5078060;28;20099;-79
2021/08/26 04:45:45;;;;;;;3.60;3.30;;;15.80;74.90;;;;;;5077387;28;20028;-79
2021/08/26 04:48:10;;;;;;;3.95;3.40;;;15.80;75.10;;;;;;5058013;28;20083;-79
2021/08/26 04:50:36;;;;;;;4.13;3.72;;;15.80;75.20;;;;;;5057741;28;20025;-79
2021/08/26 04:53:04;;;;;;;4.00;3.65;;;15.80;74.80;;;;;;5057844;28;20036;-78
2021/08/26 04:55:30;;;;;;;3.95;3.55;;;15.80;75.50;;;;;;5064832;28;20151;-79
2021/08/26 04:57:55;;;;;;;3.70;3.40;;;15.80;75.50;;;;;;5056370;28;20057;-79
2021/08/26 05:00:21;;;;;;;4.25;3.85;;;15.80;75.30;;;;;;5057752;28;20114;-80
2021/08/26 05:02:47;;;;;;;4.55;3.85;;;15.80;75.10;;;;;;5057533;28;20398;-80
2021/08/26 05:05:12;;;;;;;4.10;3.78;;;15.90;75.20;;;;;;5057440;28;20446;-79
2021/08/26 05:07:38;;;;;;;4.25;3.85;;;15.90;75.00;;;;;;5057521;28;20476;-79
2021/08/26 05:10:14;;;;;;;4.38;3.95;;;15.90;74.80;;;;;;5060722;28;20084;-78
2021/08/26 05:12:40;;;;;;;3.95;3.50;;;15.90;74.90;;;;;;5077857;28;20023;-79
2021/08/26 05:15:06;;;;;;;5.65;4.07;;;16.00;74.90;;;;;;5077407;28;20488;-79
2021/08/26 05:17:32;;;;;;;4.47;4.07;;;15.90;74.70;;;;;;5077387;28;20039;-79
2021/08/26 05:19:57;;;;;;;4.00;3.70;;;15.90;74.60;;;;;;5058669;28;20077;-80
2021/08/26 05:22:23;;;;;;;4.13;3.42;;;15.90;74.60;;;;;;5057315;28;20100;-79
2021/08/26 05:24:50;;;;;;;4.47;4.07;;;15.90;74.70;;;;;;5057141;28;20103;-79
2021/08/26 05:27:19;;;;;;;4.50;4.10;;;15.90;74.50;;;;;;5057043;28;20021;-78
2021/08/26 05:29:45;;;;;;;3.85;3.55;;;15.90;74.60;;;;;;5055796;28;20021;-79
2021/08/26 05:32:11;;;;;;;4.68;3.85;;;15.90;74.50;;;;;;5070549;28;20415;-80
2021/08/26 05:34:36;;;;;;;3.63;3.33;;;15.90;74.60;;;;;;5058339;28;20036;-80
2021/08/26 05:37:02;;;;;;;4.15;3.75;;;15.90;74.50;;;;;;5076559;28;20051;-79
2021/08/26 05:39:28;;;;;;;5.72;4.07;;;15.90;74.70;;;;;;5076865;28;20052;-80
2021/08/26 05:41:54;;;;;;;3.90;3.60;;;15.90;74.60;;;;;;5059785;28;20087;-79
2021/08/26 05:44:19;;;;;;;4.05;3.70;;;15.90;74.40;;;;;;5068509;28;20124;-80
2021/08/26 05:46:46;;;;;;;4.10;3.70;;;15.90;74.50;;;;;;5067250;28;20436;-79
2021/08/26 05:49:12;;;;;;;4.05;3.75;;;15.90;74.50;;;;;;5055790;28;20053;-79
2021/08/26 05:51:37;;;;;;;3.80;3.40;;;15.90;74.50;;;;;;5058828;28;20493;-79
2021/08/26 05:54:03;;;;;;;4.05;3.70;;;16.00;74.40;;;;;;5076695;28;20024;-79
2021/08/26 05:56:29;;;;;;;4.32;3.95;;;16.00;74.40;;;;;;5064894;28;20055;-79
2021/08/26 05:58:55;;;;;;;3.38;3.08;;;16.00;74.30;;;;;;5055254;28;20054;-80
2021/08/26 06:01:21;;;;;;;3.80;3.50;;;16.00;73.90;;;;;;5054846;28;20059;-80
2021/08/26 06:03:47;;;;;;;3.60;3.30;;;16.00;74.20;;;;;;5056476;28;20040;-80
2021/08/26 06:06:13;;;;;;;3.65;3.35;;;16.10;73.90;;;;;;5056034;28;20830;-80
2021/08/26 06:08:38;;;;;;;4.07;3.53;;;16.00;74.00;;;;;;5058528;28;20029;-79
2021/08/26 06:11:04;;;;;;;3.72;3.42;;;16.00;74.00;;;;;;5072290;28;20025;-79
2021/08/26 06:13:30;;;;;;;3.28;3.03;;;16.10;74.20;;;;;;5056357;28;20040;-79
2021/08/26 06:15:56;;;;;;;4.47;3.08;;;16.10;74.00;;;;;;5056221;28;20029;-79
2021/08/26 06:18:21;;;;;;;3.20;2.90;;;16.10;74.00;;;;;;5056021;28;20029;-79
2021/08/26 06:20:48;;;;;;;3.50;3.20;;;16.10;74.10;;;;;;5055797;28;20025;-79
2021/08/26 06:23:14;;;;;;;3.72;2.78;;;16.10;74.20;;;;;;5056227;28;20037;-79
2021/08/26 06:25:40;;;;;;;3.35;3.15;;;16.20;73.90;;;;;;5056113;28;20069;-79
2021/08/26 06:28:06;;;;;;;3.58;3.20;;;16.20;74.10;;;;;;5070189;28;20029;-79
2021/08/26 06:30:31;;;;;;;3.92;3.13;;;16.20;74.30;;;;;;5055785;28;20029;-79
2021/08/26 06:32:57;;;;;;;3.60;3.30;;;16.30;74.10;;;;;;5055747;28;20025;-79
2021/08/26 06:35:23;;;;;;;3.58;3.28;;;16.30;73.80;;;;;;5055589;28;20033;-79
2021/08/26 06:37:49;;;;;;;3.70;3.20;;;16.40;73.70;;;;;;5055635;28;20028;-79
2021/08/26 06:40:16;;;;;;;4.68;3.08;;;16.40;73.30;;;;;;5057283;28;20028;-79
2021/08/26 06:42:42;;;;;;;3.70;3.40;;;16.40;73.40;;;;;;5075628;28;20039;-79
2021/08/26 06:45:08;;;;;;;3.50;3.20;;;16.50;73.30;;;;;;5066281;28;20037;-79
2021/08/26 06:47:34;;;;;;;3.47;3.17;;;16.50;73.50;;;;;;5055360;28;20163;-79
2021/08/26 06:49:59;;;;;;;3.35;3.05;;;16.60;73.40;;;;;;5055591;28;20052;-79
2021/08/26 06:52:25;;;;;;;3.20;2.90;;;16.70;73.10;;;;;;5055676;28;20100;-79
2021/08/26 06:54:51;;;;;;;4.82;3.38;;;16.80;73.00;;;;;;5053998;28;20044;-80
2021/08/26 06:57:16;;;;;;;3.15;2.85;;;16.80;73.00;;;;;;5055258;28;20112;-79
2021/08/26 06:59:42;;;;;;;2.75;2.47;;;16.80;72.70;;;;;;5055527;28;20036;-80
2021/08/26 07:02:07;;;;;;;3.10;2.60;;;16.80;72.90;;;;;;5054889;28;20033;-79
2021/08/26 07:04:33;;;;;;;3.35;3.03;;;16.90;73.00;;;;;;5055269;28;20393;-80
2021/08/26 07:06:59;;;;;;;3.88;2.92;;;16.90;73.40;;;;;;5055287;28;20044;-79
2021/08/26 07:09:25;;;;;;;3.20;2.90;;;17.00;73.00;;;;;;5055380;28;20033;-79
2021/08/26 07:11:51;;;;;;;2.60;2.40;;;17.00;73.60;;;;;;5055497;28;20025;-79
2021/08/26 07:14:17;;;;;;;2.85;2.30;;;17.10;73.00;;;;;;5060633;28;20033;-79
2021/08/26 07:16:43;;;;;;;3.47;2.70;;;17.20;72.70;;;;;;5075310;28;20065;-80
2021/08/26 07:19:09;;;;;;;3.47;2.78;;;17.30;72.50;;;;;;5075216;28;20036;-80
2021/08/26 07:21:35;;;;;;;2.50;2.30;;;17.40;72.60;;;;;;5069239;28;20025;-79
2021/08/26 07:24:00;;;;;;;3.47;2.40;;;17.40;72.60;;;;;;5055047;28;20037;-80
2021/08/26 07:26:26;;;;;;;2.15;1.92;;;17.50;72.40;;;;;;5055183;28;20025;-80
2021/08/26 07:28:53;;;;;;;2.72;2.53;;;17.60;72.00;;;;;;5055983;28;20033;-80
2021/08/26 07:31:18;;;;;;;3.03;2.38;;;17.80;71.20;;;;;;5075106;28;20096;-80
2021/08/26 07:33:44;;;;;;;2.65;2.45;;;18.00;70.50;;;;;;5074905;28;20056;-80
2021/08/26 07:36:10;;;;;;;2.65;2.45;;;18.30;69.60;;;;;;5063468;28;20040;-80
2021/08/26 07:38:36;;;;;;;2.67;2.47;;;18.30;69.10;;;;;;5053832;28;20051;-80
2021/08/26 07:41:01;;;;;;;2.88;2.67;;;18.40;68.80;;;;;;5064464;28;20487;-80
2021/08/26 07:43:31;;;;;;;2.38;2.00;;;18.50;68.50;;;;;;5070911;28;20048;-79
2021/08/26 07:45:57;;;;;;;2.47;2.28;;;18.60;67.90;;;;;;5065475;28;20027;-80
2021/08/26 07:48:23;;;;;;;2.72;2.42;;;18.80;67.00;;;;;;5074953;28;20553;-80
2021/08/26 07:50:52;;;;;;;2.30;2.10;;;18.80;66.60;;;;;;5074872;28;20029;-80
2021/08/26 07:53:21;;;;;;;2.20;2.00;;;19.00;67.00;;;;;;5058335;28;20025;-79
2021/08/26 07:55:46;;;;;;;1.70;1.60;;;19.70;65.20;;;;;;5053468;28;20520;-79
2021/08/26 07:58:13;;;;;;;1.65;1.30;;;22.00;59.50;;;;;;5053427;28;20400;-79
2021/08/26 08:00:38;;;;;;;1.42;1.23;;;24.40;52.00;;;;;;5055017;28;20032;-79
2021/08/26 08:03:04;;;;;;;2.35;1.13;;;26.00;48.20;;;;;;5070224;28;20028;-79
2021/08/26 08:05:31;;;;;;;1.67;1.17;;;27.70;43.10;;;;;;5074630;28;20108;-79
2021/08/26 08:07:57;;;;;;;1.50;1.05;;;28.80;41.50;;;;;;5073394;28;20078;-79
2021/08/26 08:10:23;;;;;;;1.50;1.00;;;30.00;39.80;;;;;;5071304;28;20028;-79
2021/08/26 08:12:49;;;;;;;2.67;0.90;;;30.70;37.30;;;;;;5055024;28;20032;-79
2021/08/26 08:15:14;;;;;;;1.00;0.63;;;31.30;35.30;;;;;;5058473;28;20025;-79
2021/08/26 08:17:40;;;;;;;1.40;0.90;;;31.40;35.40;;;;;;5058420;28;20018;-79
2021/08/26 08:20:07;;;;;;;1.20;0.88;;;32.00;34.10;;;;;;5058396;28;20443;-79
2021/08/26 08:22:34;;;;;;;1.52;0.63;;;32.30;33.10;;;;;;5058177;28;20052;-78
2021/08/26 08:24:59;;;;;;;1.25;0.80;;;32.60;32.10;;;;;;5076748;28;20036;-79
2021/08/26 08:27:25;;;;;;;1.40;0.68;;;32.80;33.20;;;;;;5078244;28;20089;-79
2021/08/26 08:29:51;;;;;;;1.60;0.88;;;32.80;32.80;;;;;;5061070;28;20025;-79
2021/08/26 08:32:17;;;;;;;0.98;0.60;;;32.80;32.50;;;;;;5056756;28;20504;-80
2021/08/26 08:34:42;;;;;;;0.93;0.57;;;32.80;31.90;;;;;;5058042;28;20041;-80
2021/08/26 08:37:08;;;;;;;1.10;0.60;;;33.10;32.10;;;;;;5057872;28;20081;-79
2021/08/26 08:39:34;;;;;;;0.90;0.50;;;33.30;31.00;;;;;;5057795;28;20124;-80
2021/08/26 08:42:00;;;;;;;0.82;0.45;;;33.50;30.90;;;;;;5075318;28;20032;-79
2021/08/26 08:44:25;;;;;;;1.27;0.70;;;33.80;30.90;;;;;;5077844;28;20033;-79
2021/08/26 08:46:58;;;;;;;0.70;0.40;;;33.60;31.20;;;;;;5060940;28;20408;-79
2021/08/26 08:49:24;;;;;;;1.08;0.55;;;33.60;30.30;;;;;;5057777;28;20048;-80
2021/08/26 08:51:54;;;;;;;1.17;0.60;;;33.70;30.80;;;;;;5058078;28;20025;-79
2021/08/26 08:54:21;;;;;;;1.75;0.70;;;33.60;30.00;;;;;;5057408;28;20541;-80
2021/08/26 08:56:47;;;;;;;1.03;0.60;;;33.60;30.20;;;;;;5057761;28;20024;-79
2021/08/26 08:59:13;;;;;;;0.88;0.50;;;33.20;30.90;;;;;;5057818;28;20326;-79
2021/08/26 09:01:38;;;;;;;1.40;0.60;;;33.30;30.60;;;;;;5057571;28;20029;-79
2021/08/26 09:04:06;;;;;;;0.93;0.50;;;33.00;31.60;;;;;;5057172;28;20032;-79
2021/08/26 09:06:42;;;;;;;0.98;0.40;;;33.00;31.70;;;;;;5057621;28;20036;-79
2021/08/26 09:09:10;;;;;;;0.80;0.47;;;32.90;30.70;;;;;;5057465;28;20022;-78
2021/08/26 09:11:37;;;;;;;0.73;0.40;;;33.10;31.10;;;;;;5057432;28;20017;-79
2021/08/26 09:14:13;;;;;;;1.10;0.55;;;33.40;31.10;;;;;;5074926;28;20033;-79
2021/08/26 09:16:41;;;;;;;0.80;0.50;;;33.10;31.00;;;;;;5077458;28;20023;-78
2021/08/26 09:19:23;;;;;;;1.10;0.50;;;32.80;31.10;;;;;;5077279;28;20074;-79
2021/08/26 09:21:50;;;;;;;1.48;0.52;;;33.10;31.20;;;;;;5068731;28;20721;-79
2021/08/26 09:24:16;;;;;;;1.83;0.65;;;33.00;31.40;;;;;;5056972;28;20021;-79
2021/08/26 09:26:51;;;;;;;1.42;0.80;;;32.80;30.70;;;;;;5057169;28;20025;-79
2021/08/26 09:29:17;;;;;;;1.60;0.50;;;33.00;30.40;;;;;;5060746;28;20033;-79
2021/08/26 09:31:44;;;;;;;0.73;0.50;;;33.20;30.30;;;;;;5057191;28;20017;-79
2021/08/26 09:34:13;;;;;;;1.17;0.60;;;33.30;30.70;;;;;;5056810;28;20017;-79
2021/08/26 09:36:53;;;;;;;1.25;0.70;;;33.60;31.00;;;;;;5057068;28;20502;-79
2021/08/26 09:39:21;;;;;;;1.05;0.70;;;33.50;30.10;;;;;;5068739;28;20036;-79
2021/08/26 09:41:47;;;;;;;;;;;33.80;30.40;;;;;;5077276;28;20028;-79
2021/08/26 09:44:14;;;;;;;1.08;0.68;;;34.20;30.40;;;;;;5076796;28;19911;-79
2021/08/26 09:46:41;;;;;;;1.13;0.55;;;34.00;30.30;;;;;;5075525;28;20027;-79
2021/08/26 09:49:09;;;;;;;0.95;0.60;;;34.40;30.30;;;;;;5076580;28;20074;-79
2021/08/26 09:51:35;;;;;;;1.00;0.60;;;34.40;29.00;;;;;;5070385;28;20021;-80
2021/08/26 09:54:01;;;;;;;1.02;0.50;;;34.30;28.50;;;;;;5055576;28;20123;-79
2021/08/26 09:56:43;;;;;;;1.02;0.47;;;34.10;29.60;;;;;;5055195;28;20061;-80
2021/08/26 09:59:09;;;;;;;0.80;0.40;;;34.40;29.50;;;;;;5056599;28;20423;-79
2021/08/26 10:01:38;;;;;;;1.20;0.50;;;34.40;28.80;;;;;;5058713;28;20082;-79
2021/08/26 10:04:24;;;;;;;0.90;0.47;;;33.90;29.50;;;;;;5056200;28;20460;-79
2021/08/26 10:06:50;;;;;;;0.90;0.40;;;34.30;29.80;;;;;;5056487;28;20395;-79
2021/08/26 10:09:16;;;;;;;1.05;0.43;;;33.90;30.10;;;;;;5058042;28;20024;-79
2021/08/26 10:11:44;;;;;;;1.13;0.50;;;33.00;31.10;;;;;;5076124;28;20032;-79
2021/08/26 10:14:10;;;;;;;0.73;0.40;;;32.60;31.60;;;;;;5075346;28;20024;-79
2021/08/26 10:16:40;;;;;;;2.10;0.50;;;31.90;32.80;;;;;;5069182;28;20089;-79
2021/08/26 10:19:07;;;;;;;1.48;0.70;;;31.30;34.30;;;;;;5056268;28;20021;-79
2021/08/26 10:21:33;;;;;;;1.42;0.60;;;30.40;34.30;;;;;;5056068;28;20031;-79
2021/08/26 10:23:59;;;;;;;0.90;0.40;;;30.40;35.50;;;;;;5067093;28;20025;-79
2021/08/26 10:26:26;;;;;;;1.13;0.68;;;30.60;36.30;;;;;;5075821;28;20076;-79
2021/08/26 10:28:52;;;;;;;1.42;0.60;;;30.30;35.50;;;;;;5062142;28;20060;-79
2021/08/26 10:31:31;;;;;;;0.82;0.50;;;30.00;36.50;;;;;;5055987;28;20021;-79
2021/08/26 10:34:10;;;;;;;0.70;0.30;;;29.60;36.40;;;;;;5055771;28;20028;-79
2021/08/26 10:37:20;;;;;;;2.45;0.52;;;29.40;37.30;;;;;;5055229;28;20510;-79
2021/08/26 10:39:48;;;;;;;1.52;0.57;;;29.10;37.90;;;;;;5055758;28;20064;-79
2021/08/26 10:42:16;;;;;;;1.25;0.40;;;28.90;37.90;;;;;;5057373;28;20036;-79
2021/08/26 10:45:00;;;;;;;2.90;0.83;;;28.50;38.90;;;;;;5073780;28;20396;-78
2021/08/26 10:47:49;;;;;;;1.17;0.60;;;28.40;39.20;;;;;;5075419;28;20111;-79
2021/08/26 10:50:39;;;;;;;1.98;0.50;;;28.40;39.30;;;;;;5061518;28;20395;-78
2021/08/26 10:53:12;;;;;;;1.13;0.50;;;28.30;39.70;;;;;;5054301;28;20537;-79
2021/08/26 10:55:50;;;;;;;1.30;0.50;;;28.20;40.10;;;;;;5055668;28;20032;-79
2021/08/26 10:58:25;;;;;;;1.00;0.50;;;28.00;40.90;;;;;;5054255;28;20028;-79
2021/08/26 11:01:00;;;;;;;1.45;0.70;;;28.00;40.40;;;;;;5055283;28;20111;-78
2021/08/26 11:03:35;;;;;;;1.55;0.60;;;27.90;39.80;;;;;;5055617;28;20047;-79
2021/08/26 11:06:01;;;;;;;2.00;1.00;;;27.90;40.40;;;;;;5055142;28;20041;-79
2021/08/26 11:08:31;;;;;;;1.70;1.05;;;27.80;40.00;;;;;;5055435;28;20053;-79
2021/08/26 11:10:58;;;;;;;1.55;0.90;;;28.00;41.10;;;;;;5055325;28;20021;-79
2021/08/26 11:13:32;;;;;;;2.85;0.70;;;27.80;41.50;;;;;;5054935;28;20475;-79
2021/08/26 11:16:23;;;;;;;1.33;0.80;;;27.70;40.60;;;;;;5055110;28;20064;-78
2021/08/26 11:19:18;;;;;;;1.08;0.50;;;27.10;40.90;;;;;;5055044;28;20033;-79
2021/08/26 11:21:44;;;;;;;1.85;0.80;;;27.00;41.80;;;;;;5055300;28;20033;-79
2021/08/26 11:24:30;;;;;;;2.75;0.80;;;26.30;42.80;;;;;;5055072;28;20082;-79
2021/08/26 11:27:25;;;;;;;1.25;0.60;;;26.70;42.90;;;;;;5054967;28;20033;-79
2021/08/26 11:29:52;;;;;;;1.65;0.80;;;26.80;42.80;;;;;;5071556;28;20049;-79
2021/08/26 11:32:20;;;;;;;1.38;0.80;;;26.80;43.10;;;;;;5074858;28;20021;-79
2021/08/26 11:34:54;;;;;;;1.05;0.60;;;26.70;43.30;;;;;;5075136;28;20387;-78
2021/08/26 11:37:27;;;;;;;1.10;0.73;;;26.70;43.20;;;;;;5058986;28;20041;-78
2021/08/26 11:40:00;;;;;;;2.95;0.75;;;26.70;43.60;;;;;;5055061;28;20824;-78
2021/08/26 11:42:48;;;;;;;2.33;0.98;;;26.70;44.30;;;;;;5054525;28;20434;-78
2021/08/26 11:45:20;;;;;;;2.10;0.80;;;26.60;43.80;;;;;;5055061;28;20059;-78
2021/08/26 11:47:58;;;;;;;1.92;0.80;;;26.60;43.90;;;;;;5056652;28;20033;-79
2021/08/26 11:50:27;;;;;;;1.42;0.70;;;26.40;44.30;;;;;;5059061;28;20056;-78
2021/08/26 11:52:58;;;;;;;1.00;0.60;;;26.30;44.40;;;;;;5073962;28;20089;-77
2021/08/26 11:55:27;;;;;;;1.90;0.90;;;26.40;44.50;;;;;;5076782;28;20028;-78
2021/08/26 11:57:58;;;;;;;1.92;0.70;;;26.30;44.90;;;;;;5057488;28;20080;-79
2021/08/26 12:00:24;;;;;;;1.35;0.60;;;25.90;44.40;;;;;;5058794;28;20025;-78
2021/08/26 12:02:53;;;;;;;0.95;0.60;;;26.00;45.20;;;;;;5058751;28;20055;-78
2021/08/26 12:05:20;;;;;;;1.95;0.90;;;26.00;45.60;;;;;;5077172;28;20029;-78
2021/08/26 12:07:49;;;;;;;1.67;1.15;;;26.10;45.20;;;;;;5075946;28;20115;-79
2021/08/26 12:10:22;;;;;;;1.10;0.70;;;26.20;45.10;;;;;;5077248;28;20395;-79
2021/08/26 12:12:52;;;;;;;1.40;0.93;;;26.10;44.90;;;;;;5064091;28;20518;-79
2021/08/26 12:15:27;;;;;;;1.33;0.88;;;26.00;45.00;;;;;;5058824;28;20033;-78
2021/08/26 12:18:01;;;;;;;2.67;1.20;;;25.90;45.10;;;;;;5058345;28;20054;-79
2021/08/26 12:20:28;;;;;;;1.58;0.93;;;25.80;45.60;;;;;;5058453;28;20032;-79
2021/08/26 12:22:55;;;;;;;1.40;0.85;;;25.80;46.30;;;;;;5076995;28;20399;-79
2021/08/26 12:25:27;;;;;;;1.52;1.02;;;25.70;46.00;;;;;;5078277;28;20028;-78
2021/08/26 12:27:59;;;;;;;1.20;0.82;;;25.70;46.00;;;;;;5065321;28;20024;-78
2021/08/26 12:30:28;;;;;;;1.60;0.90;;;25.50;46.70;;;;;;5058219;28;20539;-79
2021/08/26 12:33:17;;;;;;;1.92;0.90;;;25.50;47.20;;;;;;5056675;28;20025;-79
2021/08/26 12:35:51;;;;;;;1.35;1.10;;;25.40;47.00;;;;;;5056841;28;20051;-79
2021/08/26 12:38:38;;;;;;;1.85;0.90;;;25.30;47.10;;;;;;5058165;28;20087;-78
2021/08/26 12:41:14;;;;;;;1.35;0.95;;;25.30;47.30;;;;;;5067764;28;20031;-78
2021/08/26 12:44:00;;;;;;;1.55;0.80;;;25.20;47.50;;;;;;5067560;28;20021;-78
2021/08/26 12:46:28;;;;;;;2.05;1.48;;;25.10;47.90;;;;;;5063204;28;20033;-79
2021/08/26 12:49:10;;;;;;;1.83;1.00;;;25.10;47.80;;;;;;5057749;28;20067;-79
2021/08/26 12:51:53;;;;;;;1.45;1.27;;;25.00;47.90;;;;;;5057713;28;20025;-78
2021/08/26 12:54:19;;;;;;;2.55;1.42;;;25.00;47.80;;;;;;5057790;28;20022;-79
2021/08/26 12:56:56;;;;;;;1.73;1.48;;;25.10;47.30;;;;;;5057738;28;20029;-78
2021/08/26 12:59:37;;;;;;;1.60;1.30;;;25.10;47.60;;;;;;5057062;28;20511;-79
2021/08/26 13:02:05;;;;;;;1.67;1.30;;;25.10;47.90;;;;;;5071903;28;20039;-78